sensor_id;sensor_type;location;lat;lon;timestamp;temperature;humidity
67557;DHT22;54387;53.526;49.300;2023-04-23T00:00:07;6.30;68.60
67557;DHT22;54387;53.526;49.300;2023-04-23T00:02:37;6.30;68.60
67557;DHT22;54387;53.526;49.300;2023-04-23T00:05:04;6.30;68.50
67557;DHT22;54387;53.526;49.300;2023-04-23T00:07:31;6.30;68.60
67557;DHT22;54387;53.526;49.300;2023-04-23T00:09:58;6.30;68.50
67557;DHT22;54387;53.526;49.300;2023-04-23T00:12:25;6.20;68.50
67557;DHT22;54387;53.526;49.300;2023-04-23T00:14:51;6.20;68.40
67557;DHT22;54387;53.526;49.300;2023-04-23T00:17:19;6.20;68.30
67557;DHT22;54387;53.526;49.300;2023-04-23T00:19:45;6.20;68.30
67557;DHT22;54387;53.526;49.300;2023-04-23T00:22:12;6.10;68.30
67557;DHT22;54387;53.526;49.300;2023-04-23T00:24:39;6.10;68.30
67557;DHT22;54387;53.526;49.300;2023-04-23T00:27:05;6.10;68.30
67557;DHT22;54387;53.526;49.300;2023-04-23T00:29:31;6.10;68.40
67557;DHT22;54387;53.526;49.300;2023-04-23T00:31:58;6.00;68.30
67557;DHT22;54387;53.526;49.300;2023-04-23T00:34:24;6.00;68.40
67557;DHT22;54387;53.526;49.300;2023-04-23T00:36:51;6.00;68.50
67557;DHT22;54387;53.526;49.300;2023-04-23T00:39:17;6.00;68.50
67557;DHT22;54387;53.526;49.300;2023-04-23T00:41:43;6.00;68.40
67557;DHT22;54387;53.526;49.300;2023-04-23T00:44:10;5.90;68.40
67557;DHT22;54387;53.526;49.300;2023-04-23T00:46:37;6.00;68.40
67557;DHT22;54387;53.526;49.300;2023-04-23T00:49:03;5.90;68.30
67557;DHT22;54387;53.526;49.300;2023-04-23T00:51:29;5.90;68.30
67557;DHT22;54387;53.526;49.300;2023-04-23T00:53:56;5.90;68.30
67557;DHT22;54387;53.526;49.300;2023-04-23T00:56:23;5.90;68.30
67557;DHT22;54387;53.526;49.300;2023-04-23T00:58:50;5.90;68.30
67557;DHT22;54387;53.526;49.300;2023-04-23T01:01:17;5.80;68.30
67557;DHT22;54387;53.526;49.300;2023-04-23T01:03:45;5.90;68.30
67557;DHT22;54387;53.526;49.300;2023-04-23T01:06:12;5.80;68.30
67557;DHT22;54387;53.526;49.300;2023-04-23T01:08:38;5.80;68.40
67557;DHT22;54387;53.526;49.300;2023-04-23T01:11:08;5.80;68.50
67557;DHT22;54387;53.526;49.300;2023-04-23T01:13:34;5.80;68.50
67557;DHT22;54387;53.526;49.300;2023-04-23T01:16:01;5.80;68.50
67557;DHT22;54387;53.526;49.300;2023-04-23T01:18:27;5.80;68.60
67557;DHT22;54387;53.526;49.300;2023-04-23T01:20:54;5.80;68.70
67557;DHT22;54387;53.526;49.300;2023-04-23T01:23:20;5.80;68.60
67557;DHT22;54387;53.526;49.300;2023-04-23T01:25:47;5.80;68.70
67557;DHT22;54387;53.526;49.300;2023-04-23T01:28:13;5.70;68.70
67557;DHT22;54387;53.526;49.300;2023-04-23T01:30:41;5.70;68.70
67557;DHT22;54387;53.526;49.300;2023-04-23T01:33:07;5.70;68.70
67557;DHT22;54387;53.526;49.300;2023-04-23T01:35:34;5.80;68.70
67557;DHT22;54387;53.526;49.300;2023-04-23T01:38:04;5.70;68.70
67557;DHT22;54387;53.526;49.300;2023-04-23T01:40:31;5.70;68.80
67557;DHT22;54387;53.526;49.300;2023-04-23T01:42:57;5.70;68.90
67557;DHT22;54387;53.526;49.300;2023-04-23T01:45:24;5.70;68.90
67557;DHT22;54387;53.526;49.300;2023-04-23T01:47:50;5.80;68.90
67557;DHT22;54387;53.526;49.300;2023-04-23T01:50:17;5.80;68.90
67557;DHT22;54387;53.526;49.300;2023-04-23T01:52:43;5.80;68.90
67557;DHT22;54387;53.526;49.300;2023-04-23T01:55:10;5.80;68.90
67557;DHT22;54387;53.526;49.300;2023-04-23T01:57:36;5.80;68.90
67557;DHT22;54387;53.526;49.300;2023-04-23T02:00:08;5.80;69.00
67557;DHT22;54387;53.526;49.300;2023-04-23T02:02:36;5.80;69.10
67557;DHT22;54387;53.526;49.300;2023-04-23T02:05:02;5.80;69.20
67557;DHT22;54387;53.526;49.300;2023-04-23T02:07:32;5.80;69.20
67557;DHT22;54387;53.526;49.300;2023-04-23T02:09:59;5.90;69.90
67557;DHT22;54387;53.526;49.300;2023-04-23T02:12:25;5.90;69.30
67557;DHT22;54387;53.526;49.300;2023-04-23T02:14:52;5.90;69.30
67557;DHT22;54387;53.526;49.300;2023-04-23T02:17:18;6.00;69.30
67557;DHT22;54387;53.526;49.300;2023-04-23T02:19:45;6.00;69.30
67557;DHT22;54387;53.526;49.300;2023-04-23T02:22:11;6.00;69.30
67557;DHT22;54387;53.526;49.300;2023-04-23T02:24:37;6.00;69.30
67557;DHT22;54387;53.526;49.300;2023-04-23T02:27:03;6.00;69.30
67557;DHT22;54387;53.526;49.300;2023-04-23T02:29:29;6.10;69.40
67557;DHT22;54387;53.526;49.300;2023-04-23T02:31:56;6.10;69.40
67557;DHT22;54387;53.526;49.300;2023-04-23T02:34:22;6.10;69.40
67557;DHT22;54387;53.526;49.300;2023-04-23T02:36:48;6.20;69.50
67557;DHT22;54387;53.526;49.300;2023-04-23T02:39:14;6.20;69.40
67557;DHT22;54387;53.526;49.300;2023-04-23T02:41:40;6.30;69.50
67557;DHT22;54387;53.526;49.300;2023-04-23T02:44:06;6.30;69.50
67557;DHT22;54387;53.526;49.300;2023-04-23T02:46:32;6.30;69.50
67557;DHT22;54387;53.526;49.300;2023-04-23T02:49:00;6.40;69.60
67557;DHT22;54387;53.526;49.300;2023-04-23T02:51:26;6.40;69.60
67557;DHT22;54387;53.526;49.300;2023-04-23T02:53:52;6.50;69.70
67557;DHT22;54387;53.526;49.300;2023-04-23T02:56:18;6.60;69.70
67557;DHT22;54387;53.526;49.300;2023-04-23T02:58:45;6.60;69.70
67557;DHT22;54387;53.526;49.300;2023-04-23T03:01:11;6.70;69.70
67557;DHT22;54387;53.526;49.300;2023-04-23T03:03:37;6.80;69.80
67557;DHT22;54387;53.526;49.300;2023-04-23T03:06:04;6.90;69.80
67557;DHT22;54387;53.526;49.300;2023-04-23T03:08:31;7.00;69.90
67557;DHT22;54387;53.526;49.300;2023-04-23T03:10:57;7.10;70.40
67557;DHT22;54387;53.526;49.300;2023-04-23T03:13:23;7.10;69.80
67557;DHT22;54387;53.526;49.300;2023-04-23T03:15:50;7.20;69.80
67557;DHT22;54387;53.526;49.300;2023-04-23T03:18:16;7.30;69.90
67557;DHT22;54387;53.526;49.300;2023-04-23T03:20:42;7.40;69.90
67557;DHT22;54387;53.526;49.300;2023-04-23T03:23:08;7.50;69.90
67557;DHT22;54387;53.526;49.300;2023-04-23T03:25:34;7.50;69.80
67557;DHT22;54387;53.526;49.300;2023-04-23T03:28:01;7.70;69.80
67557;DHT22;54387;53.526;49.300;2023-04-23T03:30:27;7.80;69.70
67557;DHT22;54387;53.526;49.300;2023-04-23T03:32:54;7.90;69.60
67557;DHT22;54387;53.526;49.300;2023-04-23T03:35:22;7.90;69.50
67557;DHT22;54387;53.526;49.300;2023-04-23T03:37:48;8.00;69.50
67557;DHT22;54387;53.526;49.300;2023-04-23T03:40:14;8.10;69.40
67557;DHT22;54387;53.526;49.300;2023-04-23T03:42:40;8.20;69.40
67557;DHT22;54387;53.526;49.300;2023-04-23T03:45:07;8.30;69.30
67557;DHT22;54387;53.526;49.300;2023-04-23T03:47:33;8.40;69.20
67557;DHT22;54387;53.526;49.300;2023-04-23T03:49:59;8.50;69.10
67557;DHT22;54387;53.526;49.300;2023-04-23T03:52:25;8.50;68.90
67557;DHT22;54387;53.526;49.300;2023-04-23T03:54:51;8.70;68.80
67557;DHT22;54387;53.526;49.300;2023-04-23T03:57:17;8.80;68.80
67557;DHT22;54387;53.526;49.300;2023-04-23T03:59:43;8.90;68.60
67557;DHT22;54387;53.526;49.300;2023-04-23T04:02:09;9.00;68.40
67557;DHT22;54387;53.526;49.300;2023-04-23T04:04:36;9.10;68.30
67557;DHT22;54387;53.526;49.300;2023-04-23T04:07:02;9.10;68.10
67557;DHT22;54387;53.526;49.300;2023-04-23T04:09:28;9.20;67.90
67557;DHT22;54387;53.526;49.300;2023-04-23T04:11:54;9.30;67.90
67557;DHT22;54387;53.526;49.300;2023-04-23T04:14:21;9.40;67.70
67557;DHT22;54387;53.526;49.300;2023-04-23T04:16:47;9.50;67.50
67557;DHT22;54387;53.526;49.300;2023-04-23T04:19:13;9.60;67.40
67557;DHT22;54387;53.526;49.300;2023-04-23T04:21:39;9.70;67.20
67557;DHT22;54387;53.526;49.300;2023-04-23T04:24:06;9.80;66.80
67557;DHT22;54387;53.526;49.300;2023-04-23T04:26:32;9.90;66.80
67557;DHT22;54387;53.526;49.300;2023-04-23T04:28:59;10.00;66.50
67557;DHT22;54387;53.526;49.300;2023-04-23T04:31:26;10.00;66.30
67557;DHT22;54387;53.526;49.300;2023-04-23T04:33:53;10.10;66.10
67557;DHT22;54387;53.526;49.300;2023-04-23T04:36:20;10.20;66.10
67557;DHT22;54387;53.526;49.300;2023-04-23T04:38:46;10.30;66.00
67557;DHT22;54387;53.526;49.300;2023-04-23T04:41:13;10.40;65.80
67557;DHT22;54387;53.526;49.300;2023-04-23T04:43:39;10.40;65.60
67557;DHT22;54387;53.526;49.300;2023-04-23T04:46:06;10.50;65.50
67557;DHT22;54387;53.526;49.300;2023-04-23T04:48:37;10.60;65.20
67557;DHT22;54387;53.526;49.300;2023-04-23T04:51:03;10.70;64.90
67557;DHT22;54387;53.526;49.300;2023-04-23T04:53:29;10.80;64.70
67557;DHT22;54387;53.526;49.300;2023-04-23T04:55:55;10.90;64.20
67557;DHT22;54387;53.526;49.300;2023-04-23T04:58:21;11.00;64.20
67557;DHT22;54387;53.526;49.300;2023-04-23T05:00:47;11.10;64.10
67557;DHT22;54387;53.526;49.300;2023-04-23T05:03:17;11.20;63.40
67557;DHT22;54387;53.526;49.300;2023-04-23T05:05:43;11.30;63.20
67557;DHT22;54387;53.526;49.300;2023-04-23T05:08:11;11.30;62.80
67557;DHT22;54387;53.526;49.300;2023-04-23T05:10:37;11.40;62.10
67557;DHT22;54387;53.526;49.300;2023-04-23T05:13:03;11.50;62.20
67557;DHT22;54387;53.526;49.300;2023-04-23T05:15:29;11.60;62.40
67557;DHT22;54387;53.526;49.300;2023-04-23T05:17:55;11.70;62.30
67557;DHT22;54387;53.526;49.300;2023-04-23T05:20:22;11.90;62.30
67557;DHT22;54387;53.526;49.300;2023-04-23T05:22:48;12.00;62.00
67557;DHT22;54387;53.526;49.300;2023-04-23T05:25:14;12.00;61.90
67557;DHT22;54387;53.526;49.300;2023-04-23T05:27:40;12.10;61.70
67557;DHT22;54387;53.526;49.300;2023-04-23T05:30:07;12.20;61.50
67557;DHT22;54387;53.526;49.300;2023-04-23T05:32:34;12.30;61.30
67557;DHT22;54387;53.526;49.300;2023-04-23T05:35:01;12.40;60.80
67557;DHT22;54387;53.526;49.300;2023-04-23T05:37:30;12.50;60.60
67557;DHT22;54387;53.526;49.300;2023-04-23T05:39:56;12.60;60.60
67557;DHT22;54387;53.526;49.300;2023-04-23T05:42:23;12.70;59.80
67557;DHT22;54387;53.526;49.300;2023-04-23T05:44:49;12.70;59.10
67557;DHT22;54387;53.526;49.300;2023-04-23T05:47:16;12.70;59.30
67557;DHT22;54387;53.526;49.300;2023-04-23T05:49:42;12.80;58.90
67557;DHT22;54387;53.526;49.300;2023-04-23T05:52:10;12.90;57.00
67557;DHT22;54387;53.526;49.300;2023-04-23T05:54:37;13.00;56.90
67557;DHT22;54387;53.526;49.300;2023-04-23T05:57:03;13.10;56.90
67557;DHT22;54387;53.526;49.300;2023-04-23T05:59:30;13.20;56.50
67557;DHT22;54387;53.526;49.300;2023-04-23T06:01:56;13.30;56.50
67557;DHT22;54387;53.526;49.300;2023-04-23T06:04:22;13.40;55.60
67557;DHT22;54387;53.526;49.300;2023-04-23T06:06:49;13.40;55.70
67557;DHT22;54387;53.526;49.300;2023-04-23T06:09:15;13.50;55.10
67557;DHT22;54387;53.526;49.300;2023-04-23T06:11:43;13.60;56.20
67557;DHT22;54387;53.526;49.300;2023-04-23T06:14:09;13.70;54.80
67557;DHT22;54387;53.526;49.300;2023-04-23T06:16:35;13.80;54.40
67557;DHT22;54387;53.526;49.300;2023-04-23T06:19:02;13.90;53.60
67557;DHT22;54387;53.526;49.300;2023-04-23T06:21:28;14.00;52.40
67557;DHT22;54387;53.526;49.300;2023-04-23T06:23:54;14.00;51.80
67557;DHT22;54387;53.526;49.300;2023-04-23T06:26:20;14.10;51.70
67557;DHT22;54387;53.526;49.300;2023-04-23T06:28:46;14.20;52.20
67557;DHT22;54387;53.526;49.300;2023-04-23T06:31:12;14.30;52.20
67557;DHT22;54387;53.526;49.300;2023-04-23T06:33:39;14.40;50.30
67557;DHT22;54387;53.526;49.300;2023-04-23T06:36:05;14.50;48.50
67557;DHT22;54387;53.526;49.300;2023-04-23T06:38:34;14.50;47.50
67557;DHT22;54387;53.526;49.300;2023-04-23T06:41:00;14.50;47.80
67557;DHT22;54387;53.526;49.300;2023-04-23T06:43:26;14.60;47.20
67557;DHT22;54387;53.526;49.300;2023-04-23T06:45:53;14.60;47.00
67557;DHT22;54387;53.526;49.300;2023-04-23T06:48:18;14.60;47.20
67557;DHT22;54387;53.526;49.300;2023-04-23T06:50:47;14.80;47.80
67557;DHT22;54387;53.526;49.300;2023-04-23T06:53:14;14.90;48.10
67557;DHT22;54387;53.526;49.300;2023-04-23T06:55:40;14.90;47.30
67557;DHT22;54387;53.526;49.300;2023-04-23T06:58:06;15.00;46.90
67557;DHT22;54387;53.526;49.300;2023-04-23T07:00:32;15.10;46.90
67557;DHT22;54387;53.526;49.300;2023-04-23T07:02:58;15.20;46.30
67557;DHT22;54387;53.526;49.300;2023-04-23T07:05:25;15.30;45.60
67557;DHT22;54387;53.526;49.300;2023-04-23T07:07:51;15.30;44.20
67557;DHT22;54387;53.526;49.300;2023-04-23T07:10:17;15.40;44.50
67557;DHT22;54387;53.526;49.300;2023-04-23T07:12:43;15.40;43.20
67557;DHT22;54387;53.526;49.300;2023-04-23T07:15:10;15.50;43.70
67557;DHT22;54387;53.526;49.300;2023-04-23T07:17:36;15.60;44.10
67557;DHT22;54387;53.526;49.300;2023-04-23T07:20:02;15.60;43.90
67557;DHT22;54387;53.526;49.300;2023-04-23T07:22:31;15.70;43.60
67557;DHT22;54387;53.526;49.300;2023-04-23T07:24:57;15.80;43.10
67557;DHT22;54387;53.526;49.300;2023-04-23T07:27:24;15.90;43.10
67557;DHT22;54387;53.526;49.300;2023-04-23T07:29:50;16.00;43.60
67557;DHT22;54387;53.526;49.300;2023-04-23T07:32:16;16.00;43.90
67557;DHT22;54387;53.526;49.300;2023-04-23T07:34:42;16.00;44.40
67557;DHT22;54387;53.526;49.300;2023-04-23T07:37:08;16.00;44.40
67557;DHT22;54387;53.526;49.300;2023-04-23T07:39:34;16.00;44.00
67557;DHT22;54387;53.526;49.300;2023-04-23T07:42:00;16.10;45.40
67557;DHT22;54387;53.526;49.300;2023-04-23T07:44:30;16.10;44.10
67557;DHT22;54387;53.526;49.300;2023-04-23T07:46:56;16.10;44.20
67557;DHT22;54387;53.526;49.300;2023-04-23T07:49:22;16.20;44.20
67557;DHT22;54387;53.526;49.300;2023-04-23T07:51:48;16.30;44.20
67557;DHT22;54387;53.526;49.300;2023-04-23T07:54:15;16.40;44.00
67557;DHT22;54387;53.526;49.300;2023-04-23T07:56:41;16.40;43.40
67557;DHT22;54387;53.526;49.300;2023-04-23T07:59:07;16.30;43.20
67557;DHT22;54387;53.526;49.300;2023-04-23T08:01:34;16.30;43.30
67557;DHT22;54387;53.526;49.300;2023-04-23T08:04:00;16.40;43.50
67557;DHT22;54387;53.526;49.300;2023-04-23T08:06:27;16.50;42.80
67557;DHT22;54387;53.526;49.300;2023-04-23T08:08:59;16.60;42.10
67557;DHT22;54387;53.526;49.300;2023-04-23T08:11:25;16.70;42.10
67557;DHT22;54387;53.526;49.300;2023-04-23T08:13:54;16.90;42.10
67557;DHT22;54387;53.526;49.300;2023-04-23T08:16:20;17.00;41.60
67557;DHT22;54387;53.526;49.300;2023-04-23T08:18:46;17.10;41.30
67557;DHT22;54387;53.526;49.300;2023-04-23T08:21:12;17.10;41.30
67557;DHT22;54387;53.526;49.300;2023-04-23T08:23:38;17.10;40.80
67557;DHT22;54387;53.526;49.300;2023-04-23T08:26:04;17.10;40.40
67557;DHT22;54387;53.526;49.300;2023-04-23T08:28:30;17.00;40.60
67557;DHT22;54387;53.526;49.300;2023-04-23T08:30:56;17.00;40.00
67557;DHT22;54387;53.526;49.300;2023-04-23T08:33:22;16.90;40.10
67557;DHT22;54387;53.526;49.300;2023-04-23T08:35:48;16.90;40.30
67557;DHT22;54387;53.526;49.300;2023-04-23T08:38:14;17.00;40.70
67557;DHT22;54387;53.526;49.300;2023-04-23T08:40:41;17.10;39.90
67557;DHT22;54387;53.526;49.300;2023-04-23T08:43:18;17.30;39.60
67557;DHT22;54387;53.526;49.300;2023-04-23T08:45:45;17.50;38.40
67557;DHT22;54387;53.526;49.300;2023-04-23T08:48:11;17.60;38.20
67557;DHT22;54387;53.526;49.300;2023-04-23T08:50:38;17.70;37.40
67557;DHT22;54387;53.526;49.300;2023-04-23T08:53:06;17.80;37.50
67557;DHT22;54387;53.526;49.300;2023-04-23T08:55:33;18.00;36.80
67557;DHT22;54387;53.526;49.300;2023-04-23T08:57:59;18.40;36.00
67557;DHT22;54387;53.526;49.300;2023-04-23T09:00:27;18.60;35.50
67557;DHT22;54387;53.526;49.300;2023-04-23T09:02:54;18.80;35.50
67557;DHT22;54387;53.526;49.300;2023-04-23T09:05:20;18.90;33.90
67557;DHT22;54387;53.526;49.300;2023-04-23T09:07:46;19.10;34.10
67557;DHT22;54387;53.526;49.300;2023-04-23T09:10:12;19.40;33.50
67557;DHT22;54387;53.526;49.300;2023-04-23T09:12:42;19.70;32.80
67557;DHT22;54387;53.526;49.300;2023-04-23T09:15:08;19.80;32.70
67557;DHT22;54387;53.526;49.300;2023-04-23T09:17:38;20.00;32.70
67557;DHT22;54387;53.526;49.300;2023-04-23T09:20:05;20.40;31.70
67557;DHT22;54387;53.526;49.300;2023-04-23T09:22:37;20.90;31.50
67557;DHT22;54387;53.526;49.300;2023-04-23T09:25:05;21.70;31.90
67557;DHT22;54387;53.526;49.300;2023-04-23T09:27:31;22.90;30.90
67557;DHT22;54387;53.526;49.300;2023-04-23T09:29:58;24.10;29.50
67557;DHT22;54387;53.526;49.300;2023-04-23T09:32:31;25.60;26.80
67557;DHT22;54387;53.526;49.300;2023-04-23T09:35:04;26.90;25.50
67557;DHT22;54387;53.526;49.300;2023-04-23T09:37:31;28.40;25.40
67557;DHT22;54387;53.526;49.300;2023-04-23T09:40:00;30.20;23.90
67557;DHT22;54387;53.526;49.300;2023-04-23T09:42:27;31.40;22.50
67557;DHT22;54387;53.526;49.300;2023-04-23T09:47:31;32.40;19.50
67557;DHT22;54387;53.526;49.300;2023-04-23T09:49:57;32.20;19.80
67557;DHT22;54387;53.526;49.300;2023-04-23T09:52:24;31.70;19.70
67557;DHT22;54387;53.526;49.300;2023-04-23T09:54:50;31.60;18.80
67557;DHT22;54387;53.526;49.300;2023-04-23T09:57:16;32.50;17.40
67557;DHT22;54387;53.526;49.300;2023-04-23T09:59:42;33.90;17.60
67557;DHT22;54387;53.526;49.300;2023-04-23T10:02:09;35.50;17.30
67557;DHT22;54387;53.526;49.300;2023-04-23T10:04:36;37.00;17.40
67557;DHT22;54387;53.526;49.300;2023-04-23T10:07:03;38.50;17.50
67557;DHT22;54387;53.526;49.300;2023-04-23T10:09:33;40.10;16.80
67557;DHT22;54387;53.526;49.300;2023-04-23T10:12:00;41.00;17.00
67557;DHT22;54387;53.526;49.300;2023-04-23T10:14:29;41.80;17.30
67557;DHT22;54387;53.526;49.300;2023-04-23T10:16:59;42.70;17.80
67557;DHT22;54387;53.526;49.300;2023-04-23T10:19:26;43.60;17.90
67557;DHT22;54387;53.526;49.300;2023-04-23T10:21:54;43.80;17.10
67557;DHT22;54387;53.526;49.300;2023-04-23T10:24:22;43.10;16.50
67557;DHT22;54387;53.526;49.300;2023-04-23T10:26:50;42.40;16.70
67557;DHT22;54387;53.526;49.300;2023-04-23T10:29:17;42.10;16.50
67557;DHT22;54387;53.526;49.300;2023-04-23T10:31:46;42.40;16.90
67557;DHT22;54387;53.526;49.300;2023-04-23T10:34:13;42.60;16.60
67557;DHT22;54387;53.526;49.300;2023-04-23T10:36:40;43.20;16.70
67557;DHT22;54387;53.526;49.300;2023-04-23T10:39:06;43.20;15.30
67557;DHT22;54387;53.526;49.300;2023-04-23T10:41:34;41.50;16.00
67557;DHT22;54387;53.526;49.300;2023-04-23T10:44:02;41.00;16.20
67557;DHT22;54387;53.526;49.300;2023-04-23T10:46:32;41.20;15.60
67557;DHT22;54387;53.526;49.300;2023-04-23T10:49:06;40.40;15.40
67557;DHT22;54387;53.526;49.300;2023-04-23T10:51:35;39.50;15.60
67557;DHT22;54387;53.526;49.300;2023-04-23T10:54:02;39.10;16.10
67557;DHT22;54387;53.526;49.300;2023-04-23T10:56:29;40.00;16.20
67557;DHT22;54387;53.526;49.300;2023-04-23T10:58:56;41.00;15.60
67557;DHT22;54387;53.526;49.300;2023-04-23T11:01:23;41.00;15.50
67557;DHT22;54387;53.526;49.300;2023-04-23T11:03:50;39.60;15.80
67557;DHT22;54387;53.526;49.300;2023-04-23T11:09:02;38.40;15.70
67557;DHT22;54387;53.526;49.300;2023-04-23T11:11:48;38.50;15.40
67557;DHT22;54387;53.526;49.300;2023-04-23T11:14:14;38.60;15.50
67557;DHT22;54387;53.526;49.300;2023-04-23T11:16:40;39.20;15.70
67557;DHT22;54387;53.526;49.300;2023-04-23T11:19:07;39.70;15.20
67557;DHT22;54387;53.526;49.300;2023-04-23T11:24:24;37.50;14.40
67557;DHT22;54387;53.526;49.300;2023-04-23T11:26:51;35.40;14.80
67557;DHT22;54387;53.526;49.300;2023-04-23T11:29:21;33.70;15.00
67557;DHT22;54387;53.526;49.300;2023-04-23T11:31:48;32.00;15.40
67557;DHT22;54387;53.526;49.300;2023-04-23T11:34:15;30.50;15.70
67557;DHT22;54387;53.526;49.300;2023-04-23T11:36:41;29.20;16.10
67557;DHT22;54387;53.526;49.300;2023-04-23T11:39:08;28.10;16.40
67557;DHT22;54387;53.526;49.300;2023-04-23T11:41:35;27.20;16.60
67557;DHT22;54387;53.526;49.300;2023-04-23T11:44:02;26.40;16.90
67557;DHT22;54387;53.526;49.300;2023-04-23T11:46:29;25.80;17.10
67557;DHT22;54387;53.526;49.300;2023-04-23T11:48:56;25.60;17.20
67557;DHT22;54387;53.526;49.300;2023-04-23T11:51:27;25.50;17.10
67557;DHT22;54387;53.526;49.300;2023-04-23T11:53:53;25.40;16.80
67557;DHT22;54387;53.526;49.300;2023-04-23T11:56:20;25.50;16.90
67557;DHT22;54387;53.526;49.300;2023-04-23T11:58:46;25.70;17.10
67557;DHT22;54387;53.526;49.300;2023-04-23T12:01:13;26.10;17.00
67557;DHT22;54387;53.526;49.300;2023-04-23T12:03:39;26.30;16.80
67557;DHT22;54387;53.526;49.300;2023-04-23T12:06:05;26.20;16.90
67557;DHT22;54387;53.526;49.300;2023-04-23T12:08:32;26.00;17.00
67557;DHT22;54387;53.526;49.300;2023-04-23T12:11:05;25.70;17.00
67557;DHT22;54387;53.526;49.300;2023-04-23T12:13:32;25.40;17.10
67557;DHT22;54387;53.526;49.300;2023-04-23T12:15:59;25.30;17.10
67557;DHT22;54387;53.526;49.300;2023-04-23T12:18:29;25.00;17.10
67557;DHT22;54387;53.526;49.300;2023-04-23T12:20:56;24.90;17.20
67557;DHT22;54387;53.526;49.300;2023-04-23T12:23:25;24.80;17.20
67557;DHT22;54387;53.526;49.300;2023-04-23T12:25:53;24.60;17.30
67557;DHT22;54387;53.526;49.300;2023-04-23T12:28:23;24.40;17.60
67557;DHT22;54387;53.526;49.300;2023-04-23T12:30:49;24.60;17.80
67557;DHT22;54387;53.526;49.300;2023-04-23T12:33:15;24.90;17.70
67557;DHT22;54387;53.526;49.300;2023-04-23T12:35:48;25.50;17.80
67557;DHT22;54387;53.526;49.300;2023-04-23T12:38:22;26.30;17.70
67557;DHT22;54387;53.526;49.300;2023-04-23T12:40:49;27.10;17.40
67557;DHT22;54387;53.526;49.300;2023-04-23T12:43:15;27.80;17.30
67557;DHT22;54387;53.526;49.300;2023-04-23T12:45:42;28.40;17.20
67557;DHT22;54387;53.526;49.300;2023-04-23T12:48:09;29.20;16.90
67557;DHT22;54387;53.526;49.300;2023-04-23T12:50:35;29.80;16.40
67557;DHT22;54387;53.526;49.300;2023-04-23T12:53:02;30.60;16.30
67557;DHT22;54387;53.526;49.300;2023-04-23T12:55:29;31.80;16.60
67557;DHT22;54387;53.526;49.300;2023-04-23T12:57:55;33.30;16.40
67557;DHT22;54387;53.526;49.300;2023-04-23T13:00:21;34.50;15.60
67557;DHT22;54387;53.526;49.300;2023-04-23T13:02:48;35.40;15.40
67557;DHT22;54387;53.526;49.300;2023-04-23T13:05:14;36.00;15.00
67557;DHT22;54387;53.526;49.300;2023-04-23T13:07:40;36.50;14.90
67557;DHT22;54387;53.526;49.300;2023-04-23T13:10:07;36.90;14.90
67557;DHT22;54387;53.526;49.300;2023-04-23T13:12:34;37.10;14.30
67557;DHT22;54387;53.526;49.300;2023-04-23T13:15:00;36.80;14.30
67557;DHT22;54387;53.526;49.300;2023-04-23T13:17:27;37.00;14.70
67557;DHT22;54387;53.526;49.300;2023-04-23T13:19:54;37.30;14.40
67557;DHT22;54387;53.526;49.300;2023-04-23T13:22:20;37.50;14.60
67557;DHT22;54387;53.526;49.300;2023-04-23T13:24:47;37.40;14.30
67557;DHT22;54387;53.526;49.300;2023-04-23T13:27:13;36.80;14.20
67557;DHT22;54387;53.526;49.300;2023-04-23T13:29:39;36.00;14.40
67557;DHT22;54387;53.526;49.300;2023-04-23T13:32:06;35.30;14.60
67557;DHT22;54387;53.526;49.300;2023-04-23T13:34:32;34.40;14.90
67557;DHT22;54387;53.526;49.300;2023-04-23T13:36:59;33.80;15.00
67557;DHT22;54387;53.526;49.300;2023-04-23T13:39:30;33.50;15.20
67557;DHT22;54387;53.526;49.300;2023-04-23T13:41:57;33.20;15.10
67557;DHT22;54387;53.526;49.300;2023-04-23T13:44:23;32.70;14.90
67557;DHT22;54387;53.526;49.300;2023-04-23T13:46:49;31.80;15.00
67557;DHT22;54387;53.526;49.300;2023-04-23T13:49:15;31.10;15.20
67557;DHT22;54387;53.526;49.300;2023-04-23T13:51:41;30.80;15.40
67557;DHT22;54387;53.526;49.300;2023-04-23T13:54:07;30.70;15.60
67557;DHT22;54387;53.526;49.300;2023-04-23T13:56:33;30.90;15.50
67557;DHT22;54387;53.526;49.300;2023-04-23T13:59:01;31.00;15.60
67557;DHT22;54387;53.526;49.300;2023-04-23T14:01:28;30.90;15.60
67557;DHT22;54387;53.526;49.300;2023-04-23T14:03:55;30.90;15.60
67557;DHT22;54387;53.526;49.300;2023-04-23T14:06:21;31.10;15.60
67557;DHT22;54387;53.526;49.300;2023-04-23T14:08:47;31.10;15.40
67557;DHT22;54387;53.526;49.300;2023-04-23T14:11:13;30.90;15.30
67557;DHT22;54387;53.526;49.300;2023-04-23T14:13:40;30.50;15.20
67557;DHT22;54387;53.526;49.300;2023-04-23T14:16:06;29.60;15.10
67557;DHT22;54387;53.526;49.300;2023-04-23T14:18:32;28.70;15.50
67557;DHT22;54387;53.526;49.300;2023-04-23T14:20:58;28.00;15.80
67557;DHT22;54387;53.526;49.300;2023-04-23T14:25:52;27.40;16.20
67557;DHT22;54387;53.526;49.300;2023-04-23T14:28:28;27.30;16.30
67557;DHT22;54387;53.526;49.300;2023-04-23T14:30:58;27.20;16.40
67557;DHT22;54387;53.526;49.300;2023-04-23T14:33:25;27.00;16.50
67557;DHT22;54387;53.526;49.300;2023-04-23T14:35:51;27.00;16.70
67557;DHT22;54387;53.526;49.300;2023-04-23T14:38:17;27.00;16.60
67557;DHT22;54387;53.526;49.300;2023-04-23T14:40:43;26.90;16.60
67557;DHT22;54387;53.526;49.300;2023-04-23T14:43:09;26.60;16.60
67557;DHT22;54387;53.526;49.300;2023-04-23T14:45:36;26.30;16.70
67557;DHT22;54387;53.526;49.300;2023-04-23T14:48:02;26.20;16.90
67557;DHT22;54387;53.526;49.300;2023-04-23T14:50:28;26.20;16.80
67557;DHT22;54387;53.526;49.300;2023-04-23T14:52:55;26.10;16.80
67557;DHT22;54387;53.526;49.300;2023-04-23T14:55:22;25.60;16.70
67557;DHT22;54387;53.526;49.300;2023-04-23T14:57:48;25.00;16.90
67557;DHT22;54387;53.526;49.300;2023-04-23T15:00:15;24.30;17.10
67557;DHT22;54387;53.526;49.300;2023-04-23T15:02:42;23.60;17.50
67557;DHT22;54387;53.526;49.300;2023-04-23T15:05:11;23.00;17.90
67557;DHT22;54387;53.526;49.300;2023-04-23T15:07:38;22.30;18.10
67557;DHT22;54387;53.526;49.300;2023-04-23T15:10:05;21.80;18.20
67557;DHT22;54387;53.526;49.300;2023-04-23T15:15:03;21.00;18.70
67557;DHT22;54387;53.526;49.300;2023-04-23T15:17:29;20.60;19.00
67557;DHT22;54387;53.526;49.300;2023-04-23T15:19:55;20.20;19.50
67557;DHT22;54387;53.526;49.300;2023-04-23T15:22:25;19.90;19.60
67557;DHT22;54387;53.526;49.300;2023-04-23T15:24:51;19.60;19.70
67557;DHT22;54387;53.526;49.300;2023-04-23T15:27:17;19.30;19.90
67557;DHT22;54387;53.526;49.300;2023-04-23T15:29:43;19.00;20.10